sensor_id;sensor_type;location;lat;lon;timestamp;pressure;altitude;pressure_sealevel;temperature;humidity
49463;BME280;35357;51.722;0.500;2022-09-09T00:00:24;100009.25;;;18.44;82.91
49463;BME280;35357;51.722;0.500;2022-09-09T00:02:59;100004.94;;;18.65;82.19
49463;BME280;35357;51.722;0.500;2022-09-09T00:05:34;100002.91;;;18.51;82.35
49463;BME280;35357;51.722;0.500;2022-09-09T00:08:03;100003.32;;;18.10;82.73
49463;BME280;35357;51.722;0.500;2022-09-09T00:10:34;99999.64;;;18.34;82.53
49463;BME280;35357;51.722;0.500;2022-09-09T00:13:13;99998.82;;;18.04;82.56
49463;BME280;35357;51.722;0.500;2022-09-09T00:15:50;100001.87;;;18.24;82.45
49463;BME280;35357;51.722;0.500;2022-09-09T00:18:25;99998.68;;;18.44;82.41
49463;BME280;35357;51.722;0.500;2022-09-09T00:20:58;99998.68;;;18.38;83.16
49463;BME280;35357;51.722;0.500;2022-09-09T00:23:29;99995.39;;;18.19;83.44
49463;BME280;35357;51.722;0.500;2022-09-09T00:26:04;99989.15;;;18.46;83.41
49463;BME280;35357;51.722;0.500;2022-09-09T00:28:38;99984.38;;;18.36;83.38
49463;BME280;35357;51.722;0.500;2022-09-09T00:31:12;99984.08;;;18.15;83.21
49463;BME280;35357;51.722;0.500;2022-09-09T00:33:41;99984.40;;;18.79;82.41
49463;BME280;35357;51.722;0.500;2022-09-09T00:36:13;99983.36;;;18.74;81.93
49463;BME280;35357;51.722;0.500;2022-09-09T00:38:44;99984.76;;;19.00;81.75
49463;BME280;35357;51.722;0.500;2022-09-09T00:41:17;99980.67;;;18.67;82.86
49463;BME280;35357;51.722;0.500;2022-09-09T00:43:55;99984.18;;;18.61;82.13
49463;BME280;35357;51.722;0.500;2022-09-09T00:46:39;99979.33;;;18.18;83.56
49463;BME280;35357;51.722;0.500;2022-09-09T00:49:19;99978.94;;;18.49;82.65
49463;BME280;35357;51.722;0.500;2022-09-09T00:51:58;99975.44;;;18.40;82.97
49463;BME280;35357;51.722;0.500;2022-09-09T00:54:39;99973.23;;;18.76;81.91
49463;BME280;35357;51.722;0.500;2022-09-09T00:57:23;99968.53;;;18.81;83.06
49463;BME280;35357;51.722;0.500;2022-09-09T00:59:55;99967.12;;;18.42;83.84
49463;BME280;35357;51.722;0.500;2022-09-09T01:02:27;99967.36;;;18.53;83.99
49463;BME280;35357;51.722;0.500;2022-09-09T01:05:00;99963.80;;;18.65;83.63
49463;BME280;35357;51.722;0.500;2022-09-09T01:07:29;99962.25;;;18.65;83.84
49463;BME280;35357;51.722;0.500;2022-09-09T01:09:57;99962.28;;;18.87;83.80
49463;BME280;35357;51.722;0.500;2022-09-09T01:12:32;99965.47;;;18.83;83.34
49463;BME280;35357;51.722;0.500;2022-09-09T01:15:09;99967.45;;;18.91;83.10
49463;BME280;35357;51.722;0.500;2022-09-09T01:17:51;99962.04;;;18.74;82.90
49463;BME280;35357;51.722;0.500;2022-09-09T01:20:24;99956.64;;;18.74;82.93
49463;BME280;35357;51.722;0.500;2022-09-09T01:23:15;99952.54;;;18.86;82.66
49463;BME280;35357;51.722;0.500;2022-09-09T01:26:21;99949.40;;;18.83;82.74
49463;BME280;35357;51.722;0.500;2022-09-09T01:28:52;99945.95;;;18.90;82.31
49463;BME280;35357;51.722;0.500;2022-09-09T01:31:22;99941.81;;;19.02;82.05
49463;BME280;35357;51.722;0.500;2022-09-09T01:33:50;99940.73;;;19.06;81.88
49463;BME280;35357;51.722;0.500;2022-09-09T01:36:24;99937.68;;;19.12;81.72
49463;BME280;35357;51.722;0.500;2022-09-09T01:38:53;99933.42;;;19.15;81.60
49463;BME280;35357;51.722;0.500;2022-09-09T01:41:20;99931.28;;;19.20;81.38
49463;BME280;35357;51.722;0.500;2022-09-09T01:43:48;99933.18;;;19.30;81.17
49463;BME280;35357;51.722;0.500;2022-09-09T01:46:16;99931.67;;;19.21;81.39
49463;BME280;35357;51.722;0.500;2022-09-09T01:48:45;99929.36;;;19.07;81.51
49463;BME280;35357;51.722;0.500;2022-09-09T01:51:13;99928.42;;;19.31;81.65
49463;BME280;35357;51.722;0.500;2022-09-09T01:53:41;99924.15;;;19.36;81.55
49463;BME280;35357;51.722;0.500;2022-09-09T01:56:18;99922.11;;;19.32;81.17
49463;BME280;35357;51.722;0.500;2022-09-09T01:59:02;99916.44;;;19.53;80.39
49463;BME280;35357;51.722;0.500;2022-09-09T02:01:39;99914.43;;;19.50;80.24
49463;BME280;35357;51.722;0.500;2022-09-09T02:04:22;99917.55;;;19.32;80.60
49463;BME280;35357;51.722;0.500;2022-09-09T02:06:55;99917.63;;;19.43;80.13
49463;BME280;35357;51.722;0.500;2022-09-09T02:09:24;99919.93;;;19.45;79.92
49463;BME280;35357;51.722;0.500;2022-09-09T02:11:55;99920.09;;;19.43;79.90
49463;BME280;35357;51.722;0.500;2022-09-09T02:14:30;99916.40;;;19.15;80.22
49463;BME280;35357;51.722;0.500;2022-09-09T02:17:03;99915.26;;;19.57;80.03
49463;BME280;35357;51.722;0.500;2022-09-09T02:19:35;99909.22;;;18.95;81.46
49463;BME280;35357;51.722;0.500;2022-09-09T02:22:04;99910.60;;;19.42;81.89
49463;BME280;35357;51.722;0.500;2022-09-09T02:24:36;99907.33;;;19.05;81.83
49463;BME280;35357;51.722;0.500;2022-09-09T02:27:06;99906.08;;;19.02;81.86
49463;BME280;35357;51.722;0.500;2022-09-09T02:29:37;99905.60;;;19.26;80.86
49463;BME280;35357;51.722;0.500;2022-09-09T02:32:08;99904.72;;;18.75;82.18
49463;BME280;35357;51.722;0.500;2022-09-09T02:34:43;99905.83;;;19.39;80.51
49463;BME280;35357;51.722;0.500;2022-09-09T02:37:13;99910.34;;;19.25;80.23
49463;BME280;35357;51.722;0.500;2022-09-09T02:39:41;99914.44;;;18.87;80.64
49463;BME280;35357;51.722;0.500;2022-09-09T02:42:08;99919.10;;;18.83;80.72
49463;BME280;35357;51.722;0.500;2022-09-09T02:44:35;99921.07;;;19.29;80.84
49463;BME280;35357;51.722;0.500;2022-09-09T02:47:26;99924.75;;;18.82;81.00
49463;BME280;35357;51.722;0.500;2022-09-09T02:50:05;99925.10;;;19.12;80.94
49463;BME280;35357;51.722;0.500;2022-09-09T02:52:43;99922.25;;;18.94;80.74
49463;BME280;35357;51.722;0.500;2022-09-09T02:55:17;99928.87;;;19.38;81.02
49463;BME280;35357;51.722;0.500;2022-09-09T02:57:47;99925.94;;;18.96;80.85
49463;BME280;35357;51.722;0.500;2022-09-09T03:00:21;99929.14;;;19.22;80.91
49463;BME280;35357;51.722;0.500;2022-09-09T03:02:48;99931.05;;;19.38;80.37
49463;BME280;35357;51.722;0.500;2022-09-09T03:05:15;99931.30;;;18.86;81.07
49463;BME280;35357;51.722;0.500;2022-09-09T03:07:43;99931.01;;;19.12;80.34
49463;BME280;35357;51.722;0.500;2022-09-09T03:10:10;99933.74;;;18.84;80.56
49463;BME280;35357;51.722;0.500;2022-09-09T03:12:38;99938.58;;;18.95;80.85
49463;BME280;35357;51.722;0.500;2022-09-09T03:15:05;99939.09;;;18.98;81.02
49463;BME280;35357;51.722;0.500;2022-09-09T03:17:33;99938.18;;;19.53;80.72
49463;BME280;35357;51.722;0.500;2022-09-09T03:20:01;99935.99;;;18.98;81.08
49463;BME280;35357;51.722;0.500;2022-09-09T03:22:28;99934.62;;;19.33;80.32
49463;BME280;35357;51.722;0.500;2022-09-09T03:24:55;99934.53;;;19.09;80.98
49463;BME280;35357;51.722;0.500;2022-09-09T03:27:22;99937.89;;;18.36;82.57
49463;BME280;35357;51.722;0.500;2022-09-09T03:29:49;99938.81;;;19.16;81.43
49463;BME280;35357;51.722;0.500;2022-09-09T03:32:17;99939.57;;;18.69;81.72
49463;BME280;35357;51.722;0.500;2022-09-09T03:34:44;99936.93;;;18.96;81.54
49463;BME280;35357;51.722;0.500;2022-09-09T03:37:11;99933.38;;;18.20;83.76
49463;BME280;35357;51.722;0.500;2022-09-09T03:39:39;99937.12;;;19.00;81.74
49463;BME280;35357;51.722;0.500;2022-09-09T03:42:07;99940.47;;;18.86;82.07
49463;BME280;35357;51.722;0.500;2022-09-09T03:44:34;99945.09;;;18.79;81.32
49463;BME280;35357;51.722;0.500;2022-09-09T03:47:01;99945.90;;;19.33;80.92
49463;BME280;35357;51.722;0.500;2022-09-09T03:49:29;99943.59;;;18.91;82.16
49463;BME280;35357;51.722;0.500;2022-09-09T03:51:56;99945.99;;;18.83;81.52
49463;BME280;35357;51.722;0.500;2022-09-09T03:54:23;99947.61;;;18.65;82.27
49463;BME280;35357;51.722;0.500;2022-09-09T03:56:50;99949.66;;;18.77;82.96
49463;BME280;35357;51.722;0.500;2022-09-09T03:59:18;99954.48;;;18.45;82.06
49463;BME280;35357;51.722;0.500;2022-09-09T04:01:45;99954.32;;;18.59;82.55
49463;BME280;35357;51.722;0.500;2022-09-09T04:04:12;99953.00;;;18.59;82.24
49463;BME280;35357;51.722;0.500;2022-09-09T04:06:38;99955.07;;;18.79;81.93
49463;BME280;35357;51.722;0.500;2022-09-09T04:09:05;99953.73;;;18.50;83.00
49463;BME280;35357;51.722;0.500;2022-09-09T04:11:33;99947.83;;;18.17;83.53
49463;BME280;35357;51.722;0.500;2022-09-09T04:14:00;99949.51;;;17.19;87.99
49463;BME280;35357;51.722;0.500;2022-09-09T04:16:27;99947.55;;;17.65;87.90
49463;BME280;35357;51.722;0.500;2022-09-09T04:18:54;99947.19;;;17.32;90.39
49463;BME280;35357;51.722;0.500;2022-09-09T04:21:22;99947.09;;;16.75;90.79
49463;BME280;35357;51.722;0.500;2022-09-09T04:23:48;99947.73;;;16.61;92.98
49463;BME280;35357;51.722;0.500;2022-09-09T04:26:15;99945.41;;;16.36;95.43
49463;BME280;35357;51.722;0.500;2022-09-09T04:28:43;99944.69;;;16.71;94.37
49463;BME280;35357;51.722;0.500;2022-09-09T04:31:15;99944.43;;;15.68;100.00
49463;BME280;35357;51.722;0.500;2022-09-09T04:33:43;99944.80;;;15.63;100.00
49463;BME280;35357;51.722;0.500;2022-09-09T04:36:09;99942.35;;;15.85;100.00
49463;BME280;35357;51.722;0.500;2022-09-09T04:38:37;99946.91;;;16.63;100.00
49463;BME280;35357;51.722;0.500;2022-09-09T04:41:04;99946.18;;;16.14;100.00
49463;BME280;35357;51.722;0.500;2022-09-09T04:43:32;99946.34;;;15.97;100.00
49463;BME280;35357;51.722;0.500;2022-09-09T04:45:59;99950.88;;;14.94;100.00
49463;BME280;35357;51.722;0.500;2022-09-09T04:48:26;99953.28;;;14.43;100.00
49463;BME280;35357;51.722;0.500;2022-09-09T04:50:56;99952.04;;;14.60;100.00
49463;BME280;35357;51.722;0.500;2022-09-09T04:53:24;99951.73;;;14.78;100.00
49463;BME280;35357;51.722;0.500;2022-09-09T04:55:51;99953.49;;;14.58;100.00
49463;BME280;35357;51.722;0.500;2022-09-09T04:58:19;99949.37;;;15.43;100.00
49463;BME280;35357;51.722;0.500;2022-09-09T05:00:46;99951.96;;;15.55;100.00
49463;BME280;35357;51.722;0.500;2022-09-09T05:03:13;99954.71;;;15.02;100.00
49463;BME280;35357;51.722;0.500;2022-09-09T05:05:40;99956.96;;;15.00;100.00
49463;BME280;35357;51.722;0.500;2022-09-09T05:08:09;99957.13;;;14.59;100.00
49463;BME280;35357;51.722;0.500;2022-09-09T05:10:37;99960.78;;;14.75;100.00
49463;BME280;35357;51.722;0.500;2022-09-09T05:13:05;99964.77;;;13.96;100.00
49463;BME280;35357;51.722;0.500;2022-09-09T05:15:32;99965.40;;;13.93;100.00
49463;BME280;35357;51.722;0.500;2022-09-09T05:18:00;99966.39;;;14.64;100.00
49463;BME280;35357;51.722;0.500;2022-09-09T05:20:28;99972.60;;;14.88;100.00
49463;BME280;35357;51.722;0.500;2022-09-09T05:22:56;99973.05;;;14.65;100.00
49463;BME280;35357;51.722;0.500;2022-09-09T05:25:24;99974.04;;;14.74;100.00
49463;BME280;35357;51.722;0.500;2022-09-09T05:27:51;99979.44;;;15.13;100.00
49463;BME280;35357;51.722;0.500;2022-09-09T05:30:18;99977.33;;;14.95;100.00
49463;BME280;35357;51.722;0.500;2022-09-09T05:32:45;99977.53;;;15.57;100.00
49463;BME280;35357;51.722;0.500;2022-09-09T05:35:13;99987.09;;;15.14;100.00
49463;BME280;35357;51.722;0.500;2022-09-09T05:37:40;99982.43;;;15.76;100.00
49463;BME280;35357;51.722;0.500;2022-09-09T05:40:08;99989.39;;;15.06;100.00
49463;BME280;35357;51.722;0.500;2022-09-09T05:42:35;99992.58;;;15.12;100.00
49463;BME280;35357;51.722;0.500;2022-09-09T05:45:03;99993.27;;;14.13;100.00
49463;BME280;35357;51.722;0.500;2022-09-09T05:47:31;100003.01;;;15.70;100.00
49463;BME280;35357;51.722;0.500;2022-09-09T05:49:58;100001.83;;;15.66;100.00
49463;BME280;35357;51.722;0.500;2022-09-09T05:52:25;100001.23;;;15.86;100.00
49463;BME280;35357;51.722;0.500;2022-09-09T05:54:52;100007.64;;;16.11;100.00
49463;BME280;35357;51.722;0.500;2022-09-09T05:57:20;100005.30;;;15.65;100.00
49463;BME280;35357;51.722;0.500;2022-09-09T05:59:47;100007.63;;;15.92;100.00
49463;BME280;35357;51.722;0.500;2022-09-09T06:02:14;100010.85;;;16.06;100.00
49463;BME280;35357;51.722;0.500;2022-09-09T06:04:41;100014.54;;;15.97;100.00
49463;BME280;35357;51.722;0.500;2022-09-09T06:07:08;100015.08;;;15.93;100.00
49463;BME280;35357;51.722;0.500;2022-09-09T06:09:35;100016.10;;;15.76;100.00
49463;BME280;35357;51.722;0.500;2022-09-09T06:12:02;100020.48;;;15.44;100.00
49463;BME280;35357;51.722;0.500;2022-09-09T06:14:30;100023.07;;;15.73;100.00
49463;BME280;35357;51.722;0.500;2022-09-09T06:16:56;100023.38;;;15.62;100.00
49463;BME280;35357;51.722;0.500;2022-09-09T06:19:24;100024.50;;;15.64;100.00
49463;BME280;35357;51.722;0.500;2022-09-09T06:21:50;100033.50;;;15.59;100.00
49463;BME280;35357;51.722;0.500;2022-09-09T06:24:17;100036.26;;;15.72;100.00
49463;BME280;35357;51.722;0.500;2022-09-09T06:26:44;100039.92;;;15.33;100.00
49463;BME280;35357;51.722;0.500;2022-09-09T06:29:12;100038.94;;;15.36;100.00
49463;BME280;35357;51.722;0.500;2022-09-09T06:31:39;100039.11;;;16.24;100.00
49463;BME280;35357;51.722;0.500;2022-09-09T06:34:07;100044.32;;;15.53;100.00
49463;BME280;35357;51.722;0.500;2022-09-09T06:36:36;100044.70;;;14.47;100.00
49463;BME280;35357;51.722;0.500;2022-09-09T06:39:05;100044.90;;;15.16;100.00
49463;BME280;35357;51.722;0.500;2022-09-09T06:41:33;100047.89;;;15.45;100.00
49463;BME280;35357;51.722;0.500;2022-09-09T06:44:00;100051.16;;;14.23;100.00
49463;BME280;35357;51.722;0.500;2022-09-09T06:46:29;100055.39;;;15.06;100.00
49463;BME280;35357;51.722;0.500;2022-09-09T06:48:56;100058.37;;;14.48;100.00
49463;BME280;35357;51.722;0.500;2022-09-09T06:51:26;100062.50;;;14.98;100.00
49463;BME280;35357;51.722;0.500;2022-09-09T06:53:55;100064.79;;;14.55;100.00
49463;BME280;35357;51.722;0.500;2022-09-09T06:56:24;100067.94;;;14.89;100.00
49463;BME280;35357;51.722;0.500;2022-09-09T06:58:52;100067.01;;;14.46;100.00
49463;BME280;35357;51.722;0.500;2022-09-09T07:01:21;100075.92;;;15.15;100.00
49463;BME280;35357;51.722;0.500;2022-09-09T07:03:50;100077.41;;;14.93;100.00
49463;BME280;35357;51.722;0.500;2022-09-09T07:06:20;100079.99;;;14.32;100.00
49463;BME280;35357;51.722;0.500;2022-09-09T07:08:52;100079.52;;;14.49;100.00
49463;BME280;35357;51.722;0.500;2022-09-09T07:11:21;100083.78;;;14.73;100.00
49463;BME280;35357;51.722;0.500;2022-09-09T07:13:49;100087.79;;;13.98;100.00
49463;BME280;35357;51.722;0.500;2022-09-09T07:16:18;100088.29;;;15.12;100.00
49463;BME280;35357;51.722;0.500;2022-09-09T07:18:47;100090.63;;;15.53;100.00
49463;BME280;35357;51.722;0.500;2022-09-09T07:21:14;100093.62;;;14.64;100.00
49463;BME280;35357;51.722;0.500;2022-09-09T07:23:41;100103.18;;;14.43;100.00
49463;BME280;35357;51.722;0.500;2022-09-09T07:26:10;100108.73;;;13.79;100.00
49463;BME280;35357;51.722;0.500;2022-09-09T07:28:37;100111.92;;;14.53;100.00
49463;BME280;35357;51.722;0.500;2022-09-09T07:31:06;100116.49;;;14.46;100.00
49463;BME280;35357;51.722;0.500;2022-09-09T07:33:34;100121.94;;;13.71;100.00
49463;BME280;35357;51.722;0.500;2022-09-09T07:36:05;100122.38;;;14.62;100.00
49463;BME280;35357;51.722;0.500;2022-09-09T07:38:37;100127.22;;;14.17;100.00
49463;BME280;35357;51.722;0.500;2022-09-09T07:41:07;100132.78;;;14.22;100.00
49463;BME280;35357;51.722;0.500;2022-09-09T07:43:34;100135.09;;;14.30;100.00
49463;BME280;35357;51.722;0.500;2022-09-09T07:46:01;100139.23;;;14.39;100.00
49463;BME280;35357;51.722;0.500;2022-09-09T07:48:29;100143.79;;;14.87;100.00
49463;BME280;35357;51.722;0.500;2022-09-09T07:51:04;100147.25;;;14.37;100.00
49463;BME280;35357;51.722;0.500;2022-09-09T07:53:32;100146.77;;;14.47;100.00
49463;BME280;35357;51.722;0.500;2022-09-09T07:56:03;100149.18;;;13.74;100.00
49463;BME280;35357;51.722;0.500;2022-09-09T07:58:30;100151.34;;;14.34;100.00
49463;BME280;35357;51.722;0.500;2022-09-09T08:00:57;100151.62;;;14.64;100.00
49463;BME280;35357;51.722;0.500;2022-09-09T08:03:25;100157.75;;;14.54;100.00
49463;BME280;35357;51.722;0.500;2022-09-09T08:05:52;100156.31;;;14.57;100.00
49463;BME280;35357;51.722;0.500;2022-09-09T08:08:20;100160.33;;;14.42;100.00
49463;BME280;35357;51.722;0.500;2022-09-09T08:10:47;100162.99;;;14.55;100.00
49463;BME280;35357;51.722;0.500;2022-09-09T08:13:14;100163.80;;;14.66;100.00
49463;BME280;35357;51.722;0.500;2022-09-09T08:15:41;100170.91;;;13.76;100.00
49463;BME280;35357;51.722;0.500;2022-09-09T08:18:08;100170.67;;;14.50;100.00
49463;BME280;35357;51.722;0.500;2022-09-09T08:20:36;100170.85;;;14.14;100.00
49463;BME280;35357;51.722;0.500;2022-09-09T08:23:03;100173.72;;;14.86;100.00
49463;BME280;35357;51.722;0.500;2022-09-09T08:25:31;100179.72;;;14.34;100.00
49463;BME280;35357;51.722;0.500;2022-09-09T08:27:58;100182.11;;;14.41;100.00
49463;BME280;35357;51.722;0.500;2022-09-09T08:30:25;100187.44;;;14.33;100.00
49463;BME280;35357;51.722;0.500;2022-09-09T08:32:52;100189.50;;;14.59;100.00
49463;BME280;35357;51.722;0.500;2022-09-09T08:35:19;100195.49;;;14.24;100.00
49463;BME280;35357;51.722;0.500;2022-09-09T08:37:46;100197.24;;;13.81;100.00
49463;BME280;35357;51.722;0.500;2022-09-09T08:40:20;100203.88;;;14.43;100.00
49463;BME280;35357;51.722;0.500;2022-09-09T08:42:52;100199.55;;;14.87;100.00
49463;BME280;35357;51.722;0.500;2022-09-09T08:45:28;100199.84;;;14.04;100.00
49463;BME280;35357;51.722;0.500;2022-09-09T08:48:08;100200.29;;;15.38;100.00
49463;BME280;35357;51.722;0.500;2022-09-09T08:50:39;100199.61;;;15.52;100.00
49463;BME280;35357;51.722;0.500;2022-09-09T08:53:12;100207.45;;;15.59;100.00
49463;BME280;35357;51.722;0.500;2022-09-09T08:55:44;100207.18;;;14.76;100.00
49463;BME280;35357;51.722;0.500;2022-09-09T08:58:15;100212.22;;;14.94;100.00
49463;BME280;35357;51.722;0.500;2022-09-09T09:00:53;100214.43;;;15.53;100.00
49463;BME280;35357;51.722;0.500;2022-09-09T09:03:30;100218.97;;;15.09;100.00
49463;BME280;35357;51.722;0.500;2022-09-09T09:06:06;100220.28;;;14.85;100.00
49463;BME280;35357;51.722;0.500;2022-09-09T09:08:45;100222.57;;;14.64;100.00
49463;BME280;35357;51.722;0.500;2022-09-09T09:11:13;100230.02;;;14.46;100.00
49463;BME280;35357;51.722;0.500;2022-09-09T09:13:44;100232.07;;;14.57;100.00
49463;BME280;35357;51.722;0.500;2022-09-09T09:16:21;100234.45;;;15.48;100.00
49463;BME280;35357;51.722;0.500;2022-09-09T09:18:50;100239.33;;;14.81;100.00
49463;BME280;35357;51.722;0.500;2022-09-09T09:21:25;100244.14;;;15.05;100.00
49463;BME280;35357;51.722;0.500;2022-09-09T09:23:58;100249.86;;;15.00;100.00
49463;BME280;35357;51.722;0.500;2022-09-09T09:26:30;100256.03;;;15.21;100.00
49463;BME280;35357;51.722;0.500;2022-09-09T09:29:03;100259.30;;;15.40;100.00
49463;BME280;35357;51.722;0.500;2022-09-09T09:31:35;100263.71;;;16.16;100.00
49463;BME280;35357;51.722;0.500;2022-09-09T09:34:01;100263.26;;;14.92;100.00
49463;BME280;35357;51.722;0.500;2022-09-09T09:36:35;100262.55;;;15.20;100.00
49463;BME280;35357;51.722;0.500;2022-09-09T09:39:04;100267.47;;;14.83;100.00
49463;BME280;35357;51.722;0.500;2022-09-09T09:41:34;100269.56;;;15.20;100.00
49463;BME280;35357;51.722;0.500;2022-09-09T09:44:02;100273.44;;;16.41;100.00
49463;BME280;35357;51.722;0.500;2022-09-09T09:46:31;100272.89;;;15.96;100.00
49463;BME280;35357;51.722;0.500;2022-09-09T09:49:00;100281.41;;;14.58;100.00
49463;BME280;35357;51.722;0.500;2022-09-09T09:51:29;100282.07;;;14.81;100.00
49463;BME280;35357;51.722;0.500;2022-09-09T09:54:14;100286.67;;;14.36;100.00
49463;BME280;35357;51.722;0.500;2022-09-09T09:56:43;100286.57;;;15.14;100.00
49463;BME280;35357;51.722;0.500;2022-09-09T09:59:21;100292.09;;;15.33;100.00
49463;BME280;35357;51.722;0.500;2022-09-09T10:01:48;100291.72;;;15.68;100.00
49463;BME280;35357;51.722;0.500;2022-09-09T10:04:18;100293.24;;;15.81;100.00
49463;BME280;35357;51.722;0.500;2022-09-09T10:06:45;100299.19;;;16.64;100.00
49463;BME280;35357;51.722;0.500;2022-09-09T10:09:23;100305.78;;;16.97;100.00
49463;BME280;35357;51.722;0.500;2022-09-09T10:11:56;100302.68;;;15.51;100.00
49463;BME280;35357;51.722;0.500;2022-09-09T10:14:32;100304.97;;;15.69;100.00
49463;BME280;35357;51.722;0.500;2022-09-09T10:17:11;100298.32;;;15.80;100.00
49463;BME280;35357;51.722;0.500;2022-09-09T10:19:50;100304.05;;;16.33;100.00
49463;BME280;35357;51.722;0.500;2022-09-09T10:22:26;100305.97;;;16.19;100.00
49463;BME280;35357;51.722;0.500;2022-09-09T10:25:26;100303.20;;;15.86;100.00
49463;BME280;35357;51.722;0.500;2022-09-09T10:28:14;100304.77;;;15.23;100.00
49463;BME280;35357;51.722;0.500;2022-09-09T10:30:52;100309.35;;;15.52;100.00
49463;BME280;35357;51.722;0.500;2022-09-09T10:33:27;100310.28;;;16.02;100.00
49463;BME280;35357;51.722;0.500;2022-09-09T10:36:02;100315.06;;;16.62;100.00
49463;BME280;35357;51.722;0.500;2022-09-09T10:38:40;100316.16;;;16.23;100.00
49463;BME280;35357;51.722;0.500;2022-09-09T10:41:16;100323.87;;;16.87;100.00
49463;BME280;35357;51.722;0.500;2022-09-09T10:44:05;100323.22;;;15.58;100.00
49463;BME280;35357;51.722;0.500;2022-09-09T10:46:49;100317.39;;;16.47;100.00
49463;BME280;35357;51.722;0.500;2022-09-09T10:49:29;100317.49;;;16.28;100.00
49463;BME280;35357;51.722;0.500;2022-09-09T10:52:07;100312.90;;;15.83;100.00
49463;BME280;35357;51.722;0.500;2022-09-09T10:54:53;100315.44;;;16.67;100.00
49463;BME280;35357;51.722;0.500;2022-09-09T10:57:28;100313.41;;;16.25;100.00
49463;BME280;35357;51.722;0.500;2022-09-09T11:00:02;100315.89;;;16.64;100.00
49463;BME280;35357;51.722;0.500;2022-09-09T11:02:31;100314.14;;;17.26;100.00
49463;BME280;35357;51.722;0.500;2022-09-09T11:05:02;100317.92;;;17.18;100.00
49463;BME280;35357;51.722;0.500;2022-09-09T11:07:35;100318.55;;;16.81;100.00
49463;BME280;35357;51.722;0.500;2022-09-09T11:10:16;100323.50;;;17.65;99.23
49463;BME280;35357;51.722;0.500;2022-09-09T11:12:48;100327.06;;;16.57;100.00
49463;BME280;35357;51.722;0.500;2022-09-09T11:15:21;100329.79;;;16.79;100.00
49463;BME280;35357;51.722;0.500;2022-09-09T11:17:55;100328.84;;;17.10;100.00
49463;BME280;35357;51.722;0.500;2022-09-09T11:20:23;100326.29;;;17.93;95.45
49463;BME280;35357;51.722;0.500;2022-09-09T11:22:54;100336.13;;;17.54;94.76
49463;BME280;35357;51.722;0.500;2022-09-09T11:25:27;100338.88;;;17.47;93.40
49463;BME280;35357;51.722;0.500;2022-09-09T11:28:10;100338.18;;;17.75;90.30
49463;BME280;35357;51.722;0.500;2022-09-09T11:30:52;100348.44;;;17.69;93.00
49463;BME280;35357;51.722;0.500;2022-09-09T11:33:59;100347.03;;;17.30;93.67
49463;BME280;35357;51.722;0.500;2022-09-09T11:36:49;100344.64;;;17.39;98.03
49463;BME280;35357;51.722;0.500;2022-09-09T11:39:38;100341.12;;;17.96;92.88
49463;BME280;35357;51.722;0.500;2022-09-09T11:42:22;100346.25;;;17.32;93.41
49463;BME280;35357;51.722;0.500;2022-09-09T11:44:51;100348.32;;;17.20;96.67
49463;BME280;35357;51.722;0.500;2022-09-09T11:47:23;100349.20;;;17.80;93.40
49463;BME280;35357;51.722;0.500;2022-09-09T11:49:51;100354.77;;;17.61;91.36
49463;BME280;35357;51.722;0.500;2022-09-09T11:52:22;100357.48;;;17.04;96.04
49463;BME280;35357;51.722;0.500;2022-09-09T11:54:50;100358.95;;;17.89;91.87
49463;BME280;35357;51.722;0.500;2022-09-09T11:57:25;100361.92;;;17.61;91.93
49463;BME280;35357;51.722;0.500;2022-09-09T11:59:53;100365.04;;;17.68;91.14
49463;BME280;35357;51.722;0.500;2022-09-09T12:02:23;100357.93;;;18.08;89.06
49463;BME280;35357;51.722;0.500;2022-09-09T12:04:57;100363.95;;;17.70;90.42
49463;BME280;35357;51.722;0.500;2022-09-09T12:07:32;100357.78;;;17.96;89.97
49463;BME280;35357;51.722;0.500;2022-09-09T12:10:04;100359.75;;;17.14;92.88
49463;BME280;35357;51.722;0.500;2022-09-09T12:12:34;100359.11;;;16.85;95.45
49463;BME280;35357;51.722;0.500;2022-09-09T12:15:22;100360.25;;;16.55;94.93
49463;BME280;35357;51.722;0.500;2022-09-09T12:17:52;100360.74;;;17.20;94.16
49463;BME280;35357;51.722;0.500;2022-09-09T12:20:21;100362.37;;;16.80;93.43
49463;BME280;35357;51.722;0.500;2022-09-09T12:22:59;100361.74;;;16.67;94.76
49463;BME280;35357;51.722;0.500;2022-09-09T12:25:35;100362.41;;;16.88;94.63
49463;BME280;35357;51.722;0.500;2022-09-09T12:28:10;100363.40;;;17.81;90.67
49463;BME280;35357;51.722;0.500;2022-09-09T12:30:44;100363.00;;;16.60;94.68
49463;BME280;35357;51.722;0.500;2022-09-09T12:33:18;100362.51;;;17.03;93.02
49463;BME280;35357;51.722;0.500;2022-09-09T12:35:50;100362.38;;;17.34;92.79
49463;BME280;35357;51.722;0.500;2022-09-09T12:38:26;100368.60;;;17.64;92.30
49463;BME280;35357;51.722;0.500;2022-09-09T12:40:58;100367.68;;;16.47;96.66
49463;BME280;35357;51.722;0.500;2022-09-09T12:43:26;100376.44;;;17.21;94.73
49463;BME280;35357;51.722;0.500;2022-09-09T12:45:57;100377.48;;;16.85;93.31
49463;BME280;35357;51.722;0.500;2022-09-09T12:48:32;100376.29;;;17.72;90.66
49463;BME280;35357;51.722;0.500;2022-09-09T12:51:00;100373.97;;;18.07;83.17
49463;BME280;35357;51.722;0.500;2022-09-09T12:53:31;100374.39;;;19.23;77.77
49463;BME280;35357;51.722;0.500;2022-09-09T12:56:02;100377.20;;;17.85;80.70
49463;BME280;35357;51.722;0.500;2022-09-09T12:58:30;100371.22;;;17.92;79.22
49463;BME280;35357;51.722;0.500;2022-09-09T13:00:58;100374.98;;;17.25;82.70
49463;BME280;35357;51.722;0.500;2022-09-09T13:03:27;100375.06;;;17.63;81.81
49463;BME280;35357;51.722;0.500;2022-09-09T13:05:59;100375.55;;;16.98;84.51
49463;BME280;35357;51.722;0.500;2022-09-09T13:08:37;100376.45;;;18.19;82.24
49463;BME280;35357;51.722;0.500;2022-09-09T13:11:09;100372.74;;;17.91;80.50